Terminal Aerodrome Forecast
Issued by NWS

Home | Current Version | Previous Version | Text Only | Print | Product List | Glossary On
Versions: 1 2 3 4 5 6 7 8 9 10 11 12 13 14 15 16 17
464
FTUS43 KOAX 290214 AAA
TAFSNY
TAF AMD
KSNY 290214Z 2902/2924 11010KT 6SM -RA SCT007 OVC020
      TEMPO 2902/2906 3SM -RA OVC007
     FM290600 02009KT 1SM -RASN OVC003
     FM291500 36013KT P6SM BKN007 OVC015
     FM291900 36015G23KT P6SM BKN025 OVC050=

USA.gov is the U.S. government's official web portal to all federal, state and local government web resources and services.